createdAt,value
2019-01-25T00:01:09.863Z,46.77
2019-01-25T00:03:39.750Z,55.50
2019-01-25T00:06:09.530Z,55.30
2019-01-25T00:08:59.290Z,54.97
2019-01-25T00:11:28.671Z,53.77
2019-01-25T00:13:57.940Z,58.13
2019-01-25T00:16:27.562Z,57.90
2019-01-25T00:18:56.907Z,57.07
2019-01-25T00:21:27.069Z,56.47
2019-01-25T00:23:56.464Z,58.20
2019-01-25T00:26:25.838Z,56.80
2019-01-25T00:28:55.102Z,56.23
2019-01-25T00:31:25.289Z,57.97
2019-01-25T00:33:54.911Z,55.77
2019-01-25T00:36:24.563Z,53.70
2019-01-25T00:38:54.216Z,54.33
2019-01-25T00:41:23.539Z,54.67
2019-01-25T00:43:52.820Z,53.03
2019-01-25T00:46:22.249Z,51.93
2019-01-25T00:48:51.605Z,54.77
2019-01-25T00:51:20.979Z,54.27
2019-01-25T00:53:50.336Z,54.30
2019-01-25T00:56:19.687Z,55.57
2019-01-25T00:58:48.966Z,55.60
2019-01-25T01:01:18.342Z,57.30
2019-01-25T01:03:47.659Z,56.77
2019-01-25T01:06:16.946Z,60.83
2019-01-25T01:08:46.263Z,57.43
2019-01-25T01:11:15.566Z,60.77
2019-01-25T01:13:44.913Z,58.93
2019-01-25T01:16:14.300Z,58.47
2019-01-25T01:18:44.029Z,56.20
2019-01-25T01:21:13.644Z,59.73
2019-01-25T01:23:42.950Z,56.27
2019-01-25T01:26:12.544Z,58.77
2019-01-25T01:28:42.155Z,61.83
2019-01-25T01:31:11.832Z,60.83
2019-01-25T01:33:41.646Z,60.70
2019-01-25T01:36:10.936Z,58.10
2019-01-25T01:38:40.253Z,57.47
2019-01-25T01:41:09.955Z,58.07
2019-01-25T01:43:39.237Z,60.60
2019-01-25T01:46:08.896Z,56.27
2019-01-25T01:48:38.267Z,56.53
2019-01-25T01:51:08.034Z,56.73
2019-01-25T01:53:37.317Z,57.77
2019-01-25T01:56:06.718Z,55.53
2019-01-25T01:58:36.009Z,55.17
2019-01-25T02:01:05.794Z,56.20
2019-01-25T02:03:35.092Z,53.30
2019-01-25T02:06:04.593Z,56.63
2019-01-25T02:08:33.885Z,56.33
2019-01-25T02:11:03.521Z,58.57
2019-01-25T02:13:33.221Z,57.00
2019-01-25T02:16:02.563Z,58.80
2019-01-25T02:18:31.923Z,59.17
2019-01-25T02:21:02.466Z,59.27
2019-01-25T02:23:31.819Z,58.67
2019-01-25T02:26:01.549Z,58.50
2019-01-25T02:28:31.163Z,58.83
2019-01-25T02:31:00.440Z,57.47
2019-01-25T02:33:29.709Z,57.43
2019-01-25T02:35:59.011Z,58.67
2019-01-25T02:38:28.298Z,58.43
2019-01-25T02:40:57.906Z,58.90
2019-01-25T02:43:27.201Z,58.93
2019-01-25T02:45:56.503Z,58.50
2019-01-25T02:48:26.212Z,60.13
2019-01-25T02:50:55.528Z,58.30
2019-01-25T02:53:24.913Z,59.70
2019-01-25T02:55:54.215Z,63.70
2019-01-25T02:58:23.479Z,61.43
2019-01-25T03:00:52.783Z,62.07
2019-01-25T03:03:22.064Z,60.20
2019-01-25T03:05:51.986Z,60.50
2019-01-25T03:08:21.254Z,59.13
2019-01-25T03:10:50.657Z,59.43
2019-01-25T03:13:19.944Z,61.63
2019-01-25T03:15:49.233Z,61.73
2019-01-25T03:18:18.502Z,61.30
2019-01-25T03:20:47.800Z,61.53
2019-01-25T03:23:17.070Z,61.77
2019-01-25T03:25:46.708Z,61.23
2019-01-25T03:28:15.982Z,58.97
2019-01-25T03:30:45.558Z,59.57
2019-01-25T03:33:14.866Z,58.07
2019-01-25T03:35:44.490Z,61.60
2019-01-25T03:38:14.076Z,58.30
2019-01-25T03:40:43.369Z,55.93
2019-01-25T03:43:12.656Z,54.43
2019-01-25T03:45:41.973Z,52.80
2019-01-25T03:48:11.245Z,58.00
2019-01-25T03:50:40.543Z,58.23
2019-01-25T03:53:09.891Z,61.03
2019-01-25T03:55:39.227Z,58.57
2019-01-25T03:58:08.595Z,57.80
2019-01-25T04:00:38.188Z,60.23
2019-01-25T04:03:07.701Z,59.93
2019-01-25T04:05:36.975Z,61.07
2019-01-25T04:08:06.435Z,62.33
2019-01-25T04:10:35.998Z,60.73
2019-01-25T04:13:05.596Z,62.97
2019-01-25T04:15:35.733Z,58.57
2019-01-25T04:18:06.060Z,58.23
2019-01-25T04:20:35.375Z,57.53
2019-01-25T04:23:05.024Z,59.60
2019-01-25T04:26:10.795Z,60.83
2019-01-25T04:28:40.581Z,57.23
2019-01-25T04:31:09.852Z,57.50
2019-01-25T04:33:39.145Z,59.60
2019-01-25T04:36:44.872Z,56.73
2019-01-25T04:39:14.134Z,56.73
2019-01-25T04:41:43.794Z,56.20
2019-01-25T04:44:14.542Z,60.43
2019-01-25T04:47:21.379Z,58.63
2019-01-25T04:49:53.788Z,55.30
2019-01-25T04:52:23.465Z,55.17
2019-01-25T04:54:52.795Z,54.93
2019-01-25T04:57:22.187Z,53.10
2019-01-25T04:59:51.475Z,51.90
2019-01-25T05:02:20.732Z,54.93
2019-01-25T05:04:49.939Z,51.00
2019-01-25T05:07:19.100Z,54.13
2019-01-25T05:10:24.367Z,53.77
2019-01-25T05:12:54.040Z,53.63
2019-01-25T05:15:59.335Z,51.87
2019-01-25T05:18:28.650Z,53.17
2019-01-25T05:20:57.778Z,55.00
2019-01-25T05:23:26.936Z,56.10
2019-01-25T05:25:56.387Z,53.43
2019-01-25T05:28:34.089Z,55.27
2019-01-25T05:31:06.019Z,52.33
2019-01-25T05:33:35.180Z,54.47
2019-01-25T05:36:04.889Z,53.90
2019-01-25T05:38:34.396Z,55.07
2019-01-25T05:41:04.783Z,52.10
2019-01-25T05:43:41.710Z,52.47
2019-01-25T05:46:10.962Z,51.83
2019-01-25T05:48:40.564Z,51.83
2019-01-25T05:51:09.793Z,54.50
2019-01-25T05:53:39.264Z,52.33
2019-01-25T05:56:08.852Z,50.03
2019-01-25T05:58:38.008Z,53.93
2019-01-25T06:01:07.349Z,54.47
2019-01-25T06:03:36.528Z,53.17
2019-01-25T06:06:09.182Z,54.43
2019-01-25T06:08:43.899Z,54.43
2019-01-25T06:11:12.893Z,52.13
2019-01-25T06:13:43.317Z,50.10
2019-01-25T06:16:12.731Z,53.10
2019-01-25T06:18:42.287Z,48.77
2019-01-25T06:21:11.773Z,48.47
2019-01-25T06:23:41.371Z,49.77
2019-01-25T06:26:12.253Z,49.20
2019-01-25T06:28:41.385Z,47.60
2019-01-25T06:31:10.576Z,49.40
2019-01-25T06:33:39.783Z,48.37
2019-01-25T06:36:09.391Z,49.70
2019-01-25T06:38:38.570Z,48.73
2019-01-25T06:41:08.686Z,46.97
2019-01-25T06:43:37.936Z,48.43
2019-01-25T06:46:07.388Z,48.77
2019-01-25T06:48:36.529Z,48.70
2019-01-25T06:51:06.378Z,48.93
2019-01-25T06:53:36.712Z,48.70
2019-01-25T06:56:06.000Z,49.40
2019-01-25T06:58:46.847Z,51.73
2019-01-25T07:01:41.415Z,50.93
2019-01-25T07:04:10.692Z,48.50
2019-01-25T07:06:39.840Z,50.33
2019-01-25T07:09:11.325Z,52.97
2019-01-25T07:11:42.173Z,53.10
2019-01-25T07:14:11.403Z,53.37
2019-01-25T07:16:40.664Z,50.73
2019-01-25T07:19:09.800Z,51.13
2019-01-25T07:21:39.030Z,53.87
2019-01-25T07:24:08.197Z,54.17
2019-01-25T07:26:37.898Z,52.17
2019-01-25T07:29:07.470Z,51.50
2019-01-25T07:31:37.068Z,52.47
2019-01-25T07:34:06.605Z,50.77
2019-01-25T07:36:36.625Z,51.07
2019-01-25T07:39:19.427Z,55.17
2019-01-25T07:41:48.712Z,55.90
2019-01-25T07:44:18.387Z,54.43
2019-01-25T07:46:48.145Z,56.10
2019-01-25T07:49:17.290Z,57.53
2019-01-25T07:51:46.469Z,57.40
2019-01-25T07:54:15.698Z,60.00
2019-01-25T07:56:44.941Z,58.53
2019-01-25T07:59:14.486Z,61.33
2019-01-25T08:01:44.315Z,61.90
2019-01-25T08:04:13.521Z,60.93
2019-01-25T08:06:42.797Z,59.70
2019-01-25T08:09:12.029Z,58.53
2019-01-25T08:11:41.279Z,60.03
2019-01-25T08:14:12.778Z,58.93
2019-01-25T08:16:41.912Z,61.33
2019-01-25T08:19:11.161Z,60.53
2019-01-25T08:21:40.352Z,58.77
2019-01-25T08:24:09.663Z,58.70
2019-01-25T08:26:39.276Z,60.00
2019-01-25T08:29:08.789Z,62.70
2019-01-25T08:31:38.074Z,65.87
2019-01-25T08:34:07.692Z,67.57
2019-01-25T08:36:36.928Z,68.93
2019-01-25T08:39:09.219Z,66.83
2019-01-25T08:41:38.402Z,65.30
2019-01-25T08:44:08.020Z,69.97
2019-01-25T08:46:37.667Z,68.43
2019-01-25T08:49:06.887Z,71.93
2019-01-25T08:51:36.446Z,67.87
2019-01-25T08:54:05.829Z,70.73
2019-01-25T08:56:35.138Z,70.43
2019-01-25T08:59:04.706Z,74.47
2019-01-25T09:01:33.907Z,70.67
2019-01-25T09:04:03.146Z,71.53
2019-01-25T09:06:32.665Z,71.50
2019-01-25T09:09:01.830Z,69.17
2019-01-25T09:11:31.086Z,69.20
2019-01-25T09:14:00.267Z,65.67
2019-01-25T09:16:29.804Z,68.70
2019-01-25T09:18:58.996Z,70.47
2019-01-25T09:21:28.534Z,65.97
2019-01-25T09:23:57.691Z,68.93
2019-01-25T09:26:27.297Z,71.37
2019-01-25T09:28:56.917Z,70.37
2019-01-25T09:31:26.532Z,72.67
2019-01-25T09:33:55.707Z,68.87
2019-01-25T09:36:25.447Z,69.93
2019-01-25T09:38:54.658Z,77.43
2019-01-25T09:41:23.826Z,74.77
2019-01-25T09:43:53.376Z,79.80
2019-01-25T09:46:22.892Z,73.83
2019-01-25T09:48:52.082Z,76.50
2019-01-25T09:51:21.360Z,74.87
2019-01-25T09:53:52.368Z,73.43
2019-01-25T09:56:21.776Z,70.90
2019-01-25T09:58:51.249Z,79.00
2019-01-25T10:01:20.723Z,75.07
2019-01-25T10:03:49.907Z,71.17
2019-01-25T10:06:19.090Z,73.70
2019-01-25T10:08:48.325Z,74.80
2019-01-25T10:11:17.578Z,71.90
2019-01-25T10:13:47.122Z,72.30
2019-01-25T10:16:16.648Z,71.17
2019-01-25T10:18:45.883Z,74.20
2019-01-25T10:21:15.041Z,69.20
2019-01-25T10:23:44.245Z,69.97
2019-01-25T10:26:13.484Z,67.33
2019-01-25T10:28:42.776Z,64.70
2019-01-25T10:31:11.934Z,65.17
2019-01-25T10:33:41.510Z,61.83
2019-01-25T10:36:11.023Z,62.87
2019-01-25T10:38:40.276Z,63.77
2019-01-25T10:41:10.223Z,59.80
2019-01-25T10:43:39.368Z,58.67
2019-01-25T10:46:08.619Z,56.83
2019-01-25T10:48:37.805Z,57.00
2019-01-25T10:51:07.045Z,55.30
2019-01-25T10:53:36.235Z,57.80
2019-01-25T10:56:05.594Z,57.07
2019-01-25T10:58:34.817Z,56.30
2019-01-25T11:01:04.294Z,53.97
2019-01-25T11:03:33.561Z,55.03
2019-01-25T11:06:03.260Z,52.43
2019-01-25T11:08:38.035Z,52.87
2019-01-25T11:11:07.258Z,53.67
2019-01-25T11:13:36.511Z,51.60
2019-01-25T11:16:06.493Z,52.87
2019-01-25T11:18:35.703Z,50.93
2019-01-25T11:21:05.073Z,49.53
2019-01-25T11:23:34.233Z,48.83
2019-01-25T11:26:03.741Z,47.70
2019-01-25T11:28:33.249Z,42.67
2019-01-25T11:31:02.487Z,39.87
2019-01-25T11:33:31.667Z,39.83
2019-01-25T11:36:01.796Z,38.53
2019-01-25T11:38:31.136Z,40.53
2019-01-25T11:41:00.315Z,38.17
2019-01-25T11:43:29.490Z,38.70
2019-01-25T11:45:58.668Z,39.30
2019-01-25T11:48:28.142Z,39.23
2019-01-25T11:50:57.983Z,38.13
2019-01-25T11:53:27.209Z,36.73
2019-01-25T11:55:56.397Z,37.23
2019-01-25T11:58:25.629Z,35.50
2019-01-25T12:00:55.339Z,35.27
2019-01-25T12:03:24.483Z,36.10
2019-01-25T12:05:53.952Z,37.73
2019-01-25T12:08:23.469Z,36.10
2019-01-25T12:10:52.669Z,35.77
2019-01-25T12:13:21.825Z,35.83
2019-01-25T12:15:51.458Z,34.97
2019-01-25T12:18:21.140Z,34.20
2019-01-25T12:20:50.433Z,34.90
2019-01-25T12:23:19.643Z,34.23
2019-01-25T12:25:48.884Z,34.97
2019-01-25T12:28:18.686Z,35.57
2019-01-25T12:30:47.840Z,34.47
2019-01-25T12:33:17.286Z,33.63
2019-01-25T12:35:46.514Z,35.47
2019-01-25T12:38:15.727Z,37.37
2019-01-25T12:40:45.263Z,36.60
2019-01-25T12:43:14.419Z,35.83
2019-01-25T12:45:43.682Z,39.13
2019-01-25T12:48:13.172Z,38.67
2019-01-25T12:50:49.087Z,41.47
2019-01-25T12:53:16.684Z,42.33
2019-01-25T12:55:46.342Z,41.70
2019-01-25T12:58:15.512Z,43.13
2019-01-25T13:00:45.088Z,45.13
2019-01-25T13:03:14.329Z,42.87
2019-01-25T13:05:43.893Z,44.77
2019-01-25T13:08:13.491Z,44.20
2019-01-25T13:10:42.732Z,43.37
2019-01-25T13:13:12.185Z,44.60
2019-01-25T13:15:41.325Z,44.13
2019-01-25T13:18:10.548Z,45.47
2019-01-25T13:20:39.875Z,44.50
2019-01-25T13:23:09.404Z,45.73
2019-01-25T13:25:38.557Z,43.90
2019-01-25T13:28:07.720Z,46.13
2019-01-25T13:30:36.969Z,44.00
2019-01-25T13:33:06.195Z,46.97
2019-01-25T13:35:35.794Z,45.03
2019-01-25T13:38:05.918Z,48.77
2019-01-25T13:40:35.107Z,47.80
2019-01-25T13:43:04.617Z,46.37
2019-01-25T13:45:34.456Z,49.63
2019-01-25T13:48:03.721Z,46.77
2019-01-25T13:50:32.962Z,46.97
2019-01-25T13:53:02.738Z,47.73
2019-01-25T13:55:32.669Z,48.90
2019-01-25T13:58:01.840Z,45.93
2019-01-25T14:00:33.122Z,47.23
2019-01-25T14:03:02.588Z,47.40
2019-01-25T14:05:32.242Z,45.50
2019-01-25T14:08:01.441Z,46.73
2019-01-25T14:10:32.675Z,45.17
2019-01-25T14:13:02.441Z,44.60
2019-01-25T14:15:31.670Z,44.87
2019-01-25T14:18:00.836Z,45.37
2019-01-25T14:20:31.420Z,44.93
2019-01-25T14:23:00.562Z,43.13
2019-01-25T14:25:30.288Z,43.00
2019-01-25T14:27:59.742Z,43.73
2019-01-25T14:30:34.147Z,43.37
2019-01-25T14:33:03.970Z,43.60
2019-01-25T14:35:33.601Z,42.77
2019-01-25T14:38:03.235Z,43.27
2019-01-25T14:40:32.525Z,45.63
2019-01-25T14:43:01.676Z,43.93
2019-01-25T14:45:31.320Z,45.60
2019-01-25T14:48:00.805Z,45.13
2019-01-25T14:50:30.467Z,46.93
2019-01-25T14:53:00.581Z,45.00
2019-01-25T14:55:30.050Z,45.57
2019-01-25T14:57:59.552Z,43.17
2019-01-25T15:00:28.713Z,43.27
2019-01-25T15:02:57.857Z,44.63
2019-01-25T15:05:27.328Z,45.33
2019-01-25T15:07:56.855Z,45.13
2019-01-25T15:10:26.396Z,44.63
2019-01-25T15:12:57.551Z,44.20
2019-01-25T15:15:27.100Z,43.07
2019-01-25T15:17:56.492Z,44.13
2019-01-25T15:20:28.401Z,45.77
2019-01-25T15:22:57.660Z,45.13
2019-01-25T15:25:27.158Z,45.27
2019-01-25T15:27:56.346Z,45.77
2019-01-25T15:30:30.702Z,44.87
2019-01-25T15:33:00.260Z,46.07
2019-01-25T15:35:29.712Z,45.03
2019-01-25T15:37:59.175Z,45.53
2019-01-25T15:40:28.444Z,46.97
2019-01-25T15:42:57.588Z,44.20
2019-01-25T15:45:27.118Z,46.10
2019-01-25T15:47:56.267Z,47.03
2019-01-25T15:50:34.374Z,47.93
2019-01-25T15:53:03.798Z,49.70
2019-01-25T15:55:33.384Z,49.63
2019-01-25T15:58:02.889Z,49.27
2019-01-25T16:00:32.676Z,46.77
2019-01-25T16:03:02.107Z,48.03
2019-01-25T16:05:31.610Z,50.50
2019-01-25T16:08:01.113Z,47.90
2019-01-25T16:10:30.316Z,48.30
2019-01-25T16:12:59.563Z,46.03
2019-01-25T16:15:30.957Z,45.13
2019-01-25T16:18:00.178Z,45.60
2019-01-25T16:20:29.870Z,47.67
2019-01-25T16:22:59.394Z,46.63
2019-01-25T16:25:33.504Z,48.27
2019-01-25T16:28:02.751Z,46.63
2019-01-25T16:30:37.306Z,46.60
2019-01-25T16:33:06.788Z,49.50
2019-01-25T16:35:36.306Z,46.53
2019-01-25T16:38:10.504Z,48.37
2019-01-25T16:40:39.825Z,47.23
2019-01-25T16:43:11.065Z,46.63
2019-01-25T16:45:44.683Z,48.07
2019-01-25T16:48:14.265Z,46.47
2019-01-25T16:50:43.940Z,48.00
2019-01-25T16:53:14.508Z,46.10
2019-01-25T16:55:44.015Z,45.63
2019-01-25T16:58:13.503Z,47.33
2019-01-25T17:00:45.003Z,47.07
2019-01-25T17:03:14.832Z,48.33
2019-01-25T17:05:44.013Z,50.17
2019-01-25T17:08:14.015Z,49.70
2019-01-25T17:10:57.547Z,48.27
2019-01-25T17:13:27.130Z,48.57
2019-01-25T17:15:56.322Z,45.60
2019-01-25T17:18:25.872Z,47.13
2019-01-25T17:20:55.032Z,44.30
2019-01-25T17:23:24.220Z,46.37
2019-01-25T17:25:53.412Z,45.53
2019-01-25T17:28:23.427Z,45.47
2019-01-25T17:30:52.985Z,47.27
2019-01-25T17:33:22.279Z,46.47
2019-01-25T17:35:51.452Z,47.90
2019-01-25T17:38:21.087Z,48.47
2019-01-25T17:40:50.645Z,49.13
2019-01-25T17:43:19.897Z,47.93
2019-01-25T17:45:49.091Z,48.63
2019-01-25T17:48:18.308Z,45.60
2019-01-25T17:50:47.629Z,50.20
2019-01-25T17:53:16.981Z,48.30
2019-01-25T17:55:46.731Z,49.87
2019-01-25T17:58:16.480Z,47.87
2019-01-25T18:00:52.311Z,47.83
2019-01-25T18:03:21.954Z,46.63
2019-01-25T18:05:51.150Z,48.67
2019-01-25T18:08:20.387Z,48.23
2019-01-25T18:10:50.146Z,49.47
2019-01-25T18:13:19.342Z,50.33
2019-01-25T18:15:48.917Z,47.20
2019-01-25T18:18:18.248Z,48.70
2019-01-25T18:20:48.040Z,47.73
2019-01-25T18:23:17.533Z,46.23
2019-01-25T18:25:49.636Z,48.17
2019-01-25T18:28:25.587Z,45.67
2019-01-25T18:31:02.015Z,46.83
2019-01-25T18:33:31.710Z,44.23
2019-01-25T18:36:00.875Z,45.60
2019-01-25T18:38:30.475Z,44.73
2019-01-25T18:40:59.691Z,45.73
2019-01-25T18:43:29.819Z,45.40
2019-01-25T18:45:59.085Z,45.70
2019-01-25T18:48:28.355Z,45.93
2019-01-25T18:50:57.788Z,48.00
2019-01-25T18:53:26.977Z,51.10
2019-01-25T18:55:56.185Z,50.73
2019-01-25T18:58:25.402Z,54.50
2019-01-25T19:00:55.208Z,50.53
2019-01-25T19:03:24.829Z,51.37
2019-01-25T19:05:54.055Z,50.67
2019-01-25T19:08:23.227Z,49.67
2019-01-25T19:10:52.654Z,50.83
2019-01-25T19:13:21.928Z,50.67
2019-01-25T19:15:51.290Z,50.57
2019-01-25T19:18:20.564Z,51.13
2019-01-25T19:20:50.210Z,51.87
2019-01-25T19:23:19.854Z,52.73
2019-01-25T19:25:49.109Z,52.03
2019-01-25T19:28:18.285Z,53.87
2019-01-25T19:30:48.092Z,51.53
2019-01-25T19:33:17.418Z,50.47
2019-01-25T19:35:46.719Z,49.67
2019-01-25T19:38:18.367Z,50.03
2019-01-25T19:40:49.277Z,49.00
2019-01-25T19:43:18.516Z,48.80
2019-01-25T19:45:48.044Z,50.37
2019-01-25T19:48:17.283Z,49.13
2019-01-25T19:50:47.234Z,49.53
2019-01-25T19:53:16.512Z,49.13
2019-01-25T19:55:45.688Z,46.97
2019-01-25T19:58:17.407Z,47.17
2019-01-25T20:00:47.583Z,46.83
2019-01-25T20:03:16.863Z,47.27
2019-01-25T20:05:46.093Z,47.10
2019-01-25T20:08:15.450Z,47.50
2019-01-25T20:10:44.910Z,46.57
2019-01-25T20:13:14.693Z,47.47
2019-01-25T20:15:43.912Z,43.17
2019-01-25T20:18:13.146Z,45.10
2019-01-25T20:20:42.429Z,44.30
2019-01-25T20:23:11.705Z,43.53
2019-01-25T20:25:40.972Z,42.23
2019-01-25T20:28:11.950Z,41.00
2019-01-25T20:30:41.378Z,39.80
2019-01-25T20:33:10.934Z,39.13
2019-01-25T20:35:41.857Z,38.73
2019-01-25T20:38:11.395Z,35.80
2019-01-25T20:40:40.889Z,36.57
2019-01-25T20:43:10.049Z,34.87
2019-01-25T20:45:39.968Z,34.90
2019-01-25T20:48:09.712Z,35.83
2019-01-25T20:50:39.302Z,33.77
2019-01-25T20:53:10.115Z,33.67
2019-01-25T20:55:39.379Z,34.17
2019-01-25T20:58:18.893Z,34.60
2019-01-25T21:00:48.233Z,33.33
2019-01-25T21:03:17.659Z,35.90
2019-01-25T21:05:46.929Z,36.10
2019-01-25T21:08:16.106Z,34.47
2019-01-25T21:10:45.280Z,34.23
2019-01-25T21:13:14.424Z,36.83
2019-01-25T21:15:44.032Z,35.57
2019-01-25T21:18:13.876Z,36.03
2019-01-25T21:20:45.466Z,35.13
2019-01-25T21:23:15.413Z,34.67
2019-01-25T21:25:45.222Z,34.10
2019-01-25T21:28:14.393Z,34.30
2019-01-25T21:30:43.691Z,34.23
2019-01-25T21:33:13.233Z,33.67
2019-01-25T21:35:42.493Z,33.00
2019-01-25T21:38:11.732Z,35.73
2019-01-25T21:40:40.913Z,33.30
2019-01-25T21:43:10.483Z,34.17
2019-01-25T21:45:43.311Z,34.60
2019-01-25T21:48:16.036Z,31.87
2019-01-25T21:50:46.095Z,34.63
2019-01-25T21:53:15.387Z,32.93
2019-01-25T21:55:44.709Z,33.23
2019-01-25T21:58:14.310Z,31.43
2019-01-25T22:00:43.498Z,34.10
2019-01-25T22:03:13.132Z,32.20
2019-01-25T22:05:42.475Z,33.60
2019-01-25T22:08:12.285Z,32.37
2019-01-25T22:10:46.760Z,31.47
2019-01-25T22:13:15.923Z,31.90
2019-01-25T22:15:50.803Z,32.23
2019-01-25T22:18:16.390Z,31.73
2019-01-25T22:20:45.669Z,31.50
2019-01-25T22:23:14.847Z,30.43
2019-01-25T22:25:44.117Z,30.90
2019-01-25T22:28:13.338Z,31.90
2019-01-25T22:30:42.637Z,30.80
2019-01-25T22:33:11.975Z,30.53
2019-01-25T22:35:41.202Z,29.97
2019-01-25T22:38:11.233Z,28.37
2019-01-25T22:40:40.816Z,28.83
2019-01-25T22:43:10.068Z,28.40
2019-01-25T22:45:39.251Z,29.43
2019-01-25T22:48:08.467Z,28.00
2019-01-25T22:50:38.107Z,27.57
2019-01-25T22:53:07.241Z,26.23
2019-01-25T22:55:36.392Z,27.30
2019-01-25T22:58:06.687Z,26.77
2019-01-25T23:00:55.109Z,25.33
2019-01-25T23:04:07.102Z,25.93
2019-01-25T23:06:39.667Z,26.50
2019-01-25T23:09:32.502Z,26.50
2019-01-25T23:12:02.027Z,25.17
2019-01-25T23:14:31.644Z,26.17
2019-01-25T23:17:01.443Z,24.90
2019-01-25T23:19:30.676Z,25.40
2019-01-25T23:22:00.206Z,25.43
2019-01-25T23:24:30.276Z,24.17
2019-01-25T23:26:59.779Z,24.33
2019-01-25T23:29:29.060Z,23.30
2019-01-25T23:31:58.569Z,24.37
2019-01-25T23:34:27.697Z,23.40
2019-01-25T23:36:56.861Z,22.83
2019-01-25T23:39:26.030Z,22.47
2019-01-25T23:41:55.211Z,22.20
2019-01-25T23:44:24.740Z,21.17
2019-01-25T23:46:54.260Z,22.23
2019-01-25T23:49:23.442Z,22.43
2019-01-25T23:51:52.663Z,22.03
2019-01-25T23:54:22.157Z,21.67
2019-01-25T23:56:51.736Z,21.10
2019-01-25T23:59:20.969Z,21.37
